sensor_id;sensor_type;location;lat;lon;timestamp;P1;durP1;ratioP1;P2;durP2;ratioP2
78298;SDS011;67556;55.656;12.590;2023-11-21T00:02:20;6.47;;;5.35;;
78298;SDS011;67556;55.656;12.590;2023-11-21T00:04:48;6.28;;;5.32;;
78298;SDS011;67556;55.656;12.590;2023-11-21T00:07:16;7.18;;;5.97;;
78298;SDS011;67556;55.656;12.590;2023-11-21T00:09:43;7.45;;;5.53;;
78298;SDS011;67556;55.656;12.590;2023-11-21T00:15:12;7.13;;;5.13;;
78298;SDS011;67556;55.656;12.590;2023-11-21T00:17:39;7.00;;;4.97;;
78298;SDS011;67556;55.656;12.590;2023-11-21T00:20:06;8.40;;;5.88;;
78298;SDS011;67556;55.656;12.590;2023-11-21T00:22:34;7.97;;;5.88;;
78298;SDS011;67556;55.656;12.590;2023-11-21T00:25:00;6.30;;;4.45;;
78298;SDS011;67556;55.656;12.590;2023-11-21T00:27:28;5.93;;;5.10;;
78298;SDS011;67556;55.656;12.590;2023-11-21T00:29:55;6.05;;;5.30;;
78298;SDS011;67556;55.656;12.590;2023-11-21T00:32:21;7.47;;;5.25;;
78298;SDS011;67556;55.656;12.590;2023-11-21T00:34:48;7.63;;;5.28;;
78298;SDS011;67556;55.656;12.590;2023-11-21T00:37:15;8.02;;;5.35;;
78298;SDS011;67556;55.656;12.590;2023-11-21T00:39:43;6.93;;;4.78;;
78298;SDS011;67556;55.656;12.590;2023-11-21T00:42:09;7.63;;;5.25;;
78298;SDS011;67556;55.656;12.590;2023-11-21T00:44:37;6.63;;;4.93;;
78298;SDS011;67556;55.656;12.590;2023-11-21T00:47:04;7.97;;;5.10;;
78298;SDS011;67556;55.656;12.590;2023-11-21T00:49:30;7.93;;;4.80;;
78298;SDS011;67556;55.656;12.590;2023-11-21T00:51:57;6.70;;;5.07;;
78298;SDS011;67556;55.656;12.590;2023-11-21T00:54:23;6.65;;;4.93;;
78298;SDS011;67556;55.656;12.590;2023-11-21T00:56:51;8.90;;;5.85;;
78298;SDS011;67556;55.656;12.590;2023-11-21T00:59:18;6.07;;;4.85;;
78298;SDS011;67556;55.656;12.590;2023-11-21T01:01:44;6.32;;;5.22;;
78298;SDS011;67556;55.656;12.590;2023-11-21T01:04:11;6.70;;;4.97;;
78298;SDS011;67556;55.656;12.590;2023-11-21T01:06:38;7.90;;;5.43;;
78298;SDS011;67556;55.656;12.590;2023-11-21T01:09:05;6.93;;;5.05;;
78298;SDS011;67556;55.656;12.590;2023-11-21T01:11:34;8.68;;;5.38;;
78298;SDS011;67556;55.656;12.590;2023-11-21T01:14:03;6.95;;;4.82;;
78298;SDS011;67556;55.656;12.590;2023-11-21T01:16:30;7.47;;;5.47;;
78298;SDS011;67556;55.656;12.590;2023-11-21T01:18:57;6.75;;;5.05;;
78298;SDS011;67556;55.656;12.590;2023-11-21T01:21:24;7.38;;;4.90;;
78298;SDS011;67556;55.656;12.590;2023-11-21T01:23:50;6.50;;;4.85;;
78298;SDS011;67556;55.656;12.590;2023-11-21T01:26:17;7.88;;;4.80;;
78298;SDS011;67556;55.656;12.590;2023-11-21T01:28:44;7.00;;;5.40;;
78298;SDS011;67556;55.656;12.590;2023-11-21T01:31:15;5.80;;;4.82;;
78298;SDS011;67556;55.656;12.590;2023-11-21T01:33:42;7.60;;;4.93;;
78298;SDS011;67556;55.656;12.590;2023-11-21T01:36:09;7.95;;;5.22;;
78298;SDS011;67556;55.656;12.590;2023-11-21T01:38:36;7.07;;;5.20;;
78298;SDS011;67556;55.656;12.590;2023-11-21T01:41:03;7.25;;;5.43;;
78298;SDS011;67556;55.656;12.590;2023-11-21T01:43:30;8.75;;;5.78;;
78298;SDS011;67556;55.656;12.590;2023-11-21T01:45:58;5.93;;;4.85;;
78298;SDS011;67556;55.656;12.590;2023-11-21T01:48:27;6.80;;;4.72;;
78298;SDS011;67556;55.656;12.590;2023-11-21T01:50:55;6.97;;;5.30;;
78298;SDS011;67556;55.656;12.590;2023-11-21T01:53:23;6.30;;;4.38;;
78298;SDS011;67556;55.656;12.590;2023-11-21T01:55:52;7.47;;;4.57;;
78298;SDS011;67556;55.656;12.590;2023-11-21T01:58:19;7.32;;;5.18;;
78298;SDS011;67556;55.656;12.590;2023-11-21T02:00:47;6.03;;;4.57;;
78298;SDS011;67556;55.656;12.590;2023-11-21T02:03:17;7.22;;;5.40;;
78298;SDS011;67556;55.656;12.590;2023-11-21T02:05:45;6.00;;;4.43;;
78298;SDS011;67556;55.656;12.590;2023-11-21T02:08:12;8.48;;;5.72;;
78298;SDS011;67556;55.656;12.590;2023-11-21T02:10:38;7.10;;;5.15;;
78298;SDS011;67556;55.656;12.590;2023-11-21T02:13:06;6.78;;;5.32;;
78298;SDS011;67556;55.656;12.590;2023-11-21T02:15:32;6.20;;;4.50;;
78298;SDS011;67556;55.656;12.590;2023-11-21T02:17:59;7.28;;;4.75;;
78298;SDS011;67556;55.656;12.590;2023-11-21T02:20:28;8.02;;;4.70;;
78298;SDS011;67556;55.656;12.590;2023-11-21T02:22:57;6.78;;;5.07;;
78298;SDS011;67556;55.656;12.590;2023-11-21T02:25:24;5.78;;;4.43;;
78298;SDS011;67556;55.656;12.590;2023-11-21T02:27:51;5.70;;;4.32;;
78298;SDS011;67556;55.656;12.590;2023-11-21T02:30:19;8.10;;;4.82;;
78298;SDS011;67556;55.656;12.590;2023-11-21T02:32:47;5.97;;;4.40;;
78298;SDS011;67556;55.656;12.590;2023-11-21T02:35:14;7.85;;;4.93;;
78298;SDS011;67556;55.656;12.590;2023-11-21T02:37:41;6.88;;;4.93;;
78298;SDS011;67556;55.656;12.590;2023-11-21T02:40:10;6.75;;;4.90;;
78298;SDS011;67556;55.656;12.590;2023-11-21T02:42:38;6.85;;;5.50;;
78298;SDS011;67556;55.656;12.590;2023-11-21T02:45:06;7.65;;;4.97;;
78298;SDS011;67556;55.656;12.590;2023-11-21T02:47:33;7.15;;;5.20;;
78298;SDS011;67556;55.656;12.590;2023-11-21T02:50:00;6.72;;;4.50;;
78298;SDS011;67556;55.656;12.590;2023-11-21T02:52:27;7.18;;;5.03;;
78298;SDS011;67556;55.656;12.590;2023-11-21T02:54:54;6.55;;;5.15;;
78298;SDS011;67556;55.656;12.590;2023-11-21T02:57:22;6.88;;;5.25;;
78298;SDS011;67556;55.656;12.590;2023-11-21T02:59:48;8.18;;;5.20;;
78298;SDS011;67556;55.656;12.590;2023-11-21T03:02:15;7.50;;;4.75;;
78298;SDS011;67556;55.656;12.590;2023-11-21T03:04:41;7.32;;;4.40;;
78298;SDS011;67556;55.656;12.590;2023-11-21T03:07:08;5.80;;;5.05;;
78298;SDS011;67556;55.656;12.590;2023-11-21T03:09:35;8.63;;;4.82;;
78298;SDS011;67556;55.656;12.590;2023-11-21T03:12:02;8.30;;;5.15;;
78298;SDS011;67556;55.656;12.590;2023-11-21T03:14:30;6.25;;;5.03;;
78298;SDS011;67556;55.656;12.590;2023-11-21T03:16:56;9.02;;;4.88;;
78298;SDS011;67556;55.656;12.590;2023-11-21T03:19:23;5.60;;;4.03;;
78298;SDS011;67556;55.656;12.590;2023-11-21T03:21:50;7.43;;;4.60;;
78298;SDS011;67556;55.656;12.590;2023-11-21T03:24:18;6.47;;;4.72;;
78298;SDS011;67556;55.656;12.590;2023-11-21T03:26:45;6.78;;;4.65;;
78298;SDS011;67556;55.656;12.590;2023-11-21T03:29:11;5.82;;;4.43;;
78298;SDS011;67556;55.656;12.590;2023-11-21T03:31:39;6.30;;;4.57;;
78298;SDS011;67556;55.656;12.590;2023-11-21T03:34:06;7.28;;;4.57;;
78298;SDS011;67556;55.656;12.590;2023-11-21T03:36:33;5.63;;;4.22;;
78298;SDS011;67556;55.656;12.590;2023-11-21T03:38:59;7.45;;;5.00;;
78298;SDS011;67556;55.656;12.590;2023-11-21T03:41:26;6.40;;;4.53;;
78298;SDS011;67556;55.656;12.590;2023-11-21T03:43:53;6.63;;;4.72;;
78298;SDS011;67556;55.656;12.590;2023-11-21T03:46:19;8.40;;;5.07;;
78298;SDS011;67556;55.656;12.590;2023-11-21T03:48:47;9.43;;;5.60;;
78298;SDS011;67556;55.656;12.590;2023-11-21T03:51:14;5.57;;;4.60;;
78298;SDS011;67556;55.656;12.590;2023-11-21T03:53:40;7.13;;;4.97;;
78298;SDS011;67556;55.656;12.590;2023-11-21T03:56:07;6.97;;;4.55;;
78298;SDS011;67556;55.656;12.590;2023-11-21T03:58:34;7.07;;;4.28;;
78298;SDS011;67556;55.656;12.590;2023-11-21T04:03:34;7.90;;;4.43;;
78298;SDS011;67556;55.656;12.590;2023-11-21T04:06:02;9.23;;;5.10;;
78298;SDS011;67556;55.656;12.590;2023-11-21T04:08:29;7.88;;;4.78;;
78298;SDS011;67556;55.656;12.590;2023-11-21T04:10:55;7.22;;;4.95;;
78298;SDS011;67556;55.656;12.590;2023-11-21T04:13:21;7.57;;;5.10;;
78298;SDS011;67556;55.656;12.590;2023-11-21T04:15:48;7.28;;;5.13;;
78298;SDS011;67556;55.656;12.590;2023-11-21T04:18:15;7.75;;;4.70;;
78298;SDS011;67556;55.656;12.590;2023-11-21T04:20:41;6.20;;;5.13;;
78298;SDS011;67556;55.656;12.590;2023-11-21T04:23:09;7.68;;;4.85;;
78298;SDS011;67556;55.656;12.590;2023-11-21T04:25:38;7.57;;;5.03;;
78298;SDS011;67556;55.656;12.590;2023-11-21T04:28:05;7.97;;;4.50;;
78298;SDS011;67556;55.656;12.590;2023-11-21T04:30:31;7.97;;;5.20;;
78298;SDS011;67556;55.656;12.590;2023-11-21T04:32:58;8.07;;;5.07;;
78298;SDS011;67556;55.656;12.590;2023-11-21T04:35:24;5.90;;;4.78;;
78298;SDS011;67556;55.656;12.590;2023-11-21T04:37:53;6.00;;;4.63;;
78298;SDS011;67556;55.656;12.590;2023-11-21T04:40:25;8.88;;;5.20;;
78298;SDS011;67556;55.656;12.590;2023-11-21T04:42:52;7.65;;;5.18;;
78298;SDS011;67556;55.656;12.590;2023-11-21T04:45:22;5.90;;;4.28;;
78298;SDS011;67556;55.656;12.590;2023-11-21T04:47:49;6.82;;;4.55;;
78298;SDS011;67556;55.656;12.590;2023-11-21T04:50:17;5.80;;;4.32;;
78298;SDS011;67556;55.656;12.590;2023-11-21T04:52:43;6.00;;;5.00;;
78298;SDS011;67556;55.656;12.590;2023-11-21T04:55:10;8.07;;;4.60;;
78298;SDS011;67556;55.656;12.590;2023-11-21T04:57:38;6.40;;;4.45;;
78298;SDS011;67556;55.656;12.590;2023-11-21T05:00:06;6.53;;;4.28;;
78298;SDS011;67556;55.656;12.590;2023-11-21T05:02:33;8.57;;;4.95;;
78298;SDS011;67556;55.656;12.590;2023-11-21T05:05:00;6.72;;;4.88;;
78298;SDS011;67556;55.656;12.590;2023-11-21T05:07:26;5.47;;;4.53;;
78298;SDS011;67556;55.656;12.590;2023-11-21T05:09:53;8.75;;;4.75;;
78298;SDS011;67556;55.656;12.590;2023-11-21T05:12:21;6.53;;;4.68;;
78298;SDS011;67556;55.656;12.590;2023-11-21T05:14:49;6.63;;;4.60;;
78298;SDS011;67556;55.656;12.590;2023-11-21T05:17:16;6.50;;;4.78;;
78298;SDS011;67556;55.656;12.590;2023-11-21T05:19:42;5.63;;;4.20;;
78298;SDS011;67556;55.656;12.590;2023-11-21T05:22:10;8.38;;;4.97;;
78298;SDS011;67556;55.656;12.590;2023-11-21T05:24:37;6.75;;;4.78;;
78298;SDS011;67556;55.656;12.590;2023-11-21T05:27:04;6.60;;;4.45;;
78298;SDS011;67556;55.656;12.590;2023-11-21T05:29:30;5.40;;;4.47;;
78298;SDS011;67556;55.656;12.590;2023-11-21T05:31:58;6.38;;;4.38;;
78298;SDS011;67556;55.656;12.590;2023-11-21T05:34:25;6.30;;;4.63;;
78298;SDS011;67556;55.656;12.590;2023-11-21T05:36:52;5.55;;;4.30;;
78298;SDS011;67556;55.656;12.590;2023-11-21T05:39:19;6.18;;;4.43;;
78298;SDS011;67556;55.656;12.590;2023-11-21T05:41:49;7.15;;;4.90;;
78298;SDS011;67556;55.656;12.590;2023-11-21T05:44:17;8.10;;;5.32;;
78298;SDS011;67556;55.656;12.590;2023-11-21T05:46:44;8.80;;;4.43;;
78298;SDS011;67556;55.656;12.590;2023-11-21T05:49:13;6.57;;;4.80;;
78298;SDS011;67556;55.656;12.590;2023-11-21T05:51:40;6.13;;;4.47;;
78298;SDS011;67556;55.656;12.590;2023-11-21T05:54:07;6.75;;;4.05;;
78298;SDS011;67556;55.656;12.590;2023-11-21T05:56:33;6.05;;;4.60;;
78298;SDS011;67556;55.656;12.590;2023-11-21T05:59:00;5.72;;;4.43;;
78298;SDS011;67556;55.656;12.590;2023-11-21T06:01:28;6.55;;;4.80;;
78298;SDS011;67556;55.656;12.590;2023-11-21T06:03:55;5.93;;;4.63;;
78298;SDS011;67556;55.656;12.590;2023-11-21T06:06:23;6.22;;;4.53;;
78298;SDS011;67556;55.656;12.590;2023-11-21T06:08:51;7.65;;;4.43;;
78298;SDS011;67556;55.656;12.590;2023-11-21T06:11:19;5.28;;;4.05;;
78298;SDS011;67556;55.656;12.590;2023-11-21T06:13:46;6.05;;;4.57;;
78298;SDS011;67556;55.656;12.590;2023-11-21T06:16:13;7.10;;;5.03;;
78298;SDS011;67556;55.656;12.590;2023-11-21T06:18:42;6.75;;;4.18;;
78298;SDS011;67556;55.656;12.590;2023-11-21T06:21:09;6.53;;;4.13;;
78298;SDS011;67556;55.656;12.590;2023-11-21T06:23:38;5.78;;;4.22;;
78298;SDS011;67556;55.656;12.590;2023-11-21T06:26:06;5.97;;;4.20;;
78298;SDS011;67556;55.656;12.590;2023-11-21T06:28:34;5.93;;;4.60;;
78298;SDS011;67556;55.656;12.590;2023-11-21T06:31:01;8.52;;;4.85;;
78298;SDS011;67556;55.656;12.590;2023-11-21T06:33:30;5.65;;;4.30;;
78298;SDS011;67556;55.656;12.590;2023-11-21T06:35:57;7.75;;;5.10;;
78298;SDS011;67556;55.656;12.590;2023-11-21T06:38:24;6.78;;;4.10;;
78298;SDS011;67556;55.656;12.590;2023-11-21T06:40:56;5.82;;;4.72;;
78298;SDS011;67556;55.656;12.590;2023-11-21T06:43:23;6.57;;;4.40;;
78298;SDS011;67556;55.656;12.590;2023-11-21T06:45:50;6.57;;;4.40;;
78298;SDS011;67556;55.656;12.590;2023-11-21T06:48:17;6.65;;;4.80;;
78298;SDS011;67556;55.656;12.590;2023-11-21T06:50:43;5.68;;;4.28;;
78298;SDS011;67556;55.656;12.590;2023-11-21T06:53:12;7.10;;;4.75;;
78298;SDS011;67556;55.656;12.590;2023-11-21T06:55:39;6.07;;;4.32;;
78298;SDS011;67556;55.656;12.590;2023-11-21T06:58:07;7.35;;;3.95;;
78298;SDS011;67556;55.656;12.590;2023-11-21T07:00:34;6.72;;;4.18;;
78298;SDS011;67556;55.656;12.590;2023-11-21T07:03:00;5.78;;;3.88;;
78298;SDS011;67556;55.656;12.590;2023-11-21T07:05:27;5.95;;;4.28;;
78298;SDS011;67556;55.656;12.590;2023-11-21T07:07:55;6.22;;;4.22;;
78298;SDS011;67556;55.656;12.590;2023-11-21T07:10:22;6.03;;;3.63;;
78298;SDS011;67556;55.656;12.590;2023-11-21T07:12:49;8.27;;;4.40;;
78298;SDS011;67556;55.656;12.590;2023-11-21T07:15:18;6.88;;;4.18;;
78298;SDS011;67556;55.656;12.590;2023-11-21T07:17:44;6.55;;;4.43;;
78298;SDS011;67556;55.656;12.590;2023-11-21T07:20:12;4.82;;;3.63;;
78298;SDS011;67556;55.656;12.590;2023-11-21T07:22:39;5.32;;;3.58;;
78298;SDS011;67556;55.656;12.590;2023-11-21T07:25:06;6.38;;;3.95;;
78298;SDS011;67556;55.656;12.590;2023-11-21T07:27:34;5.20;;;4.20;;
78298;SDS011;67556;55.656;12.590;2023-11-21T07:30:02;6.07;;;4.28;;
78298;SDS011;67556;55.656;12.590;2023-11-21T07:32:32;7.50;;;4.18;;
78298;SDS011;67556;55.656;12.590;2023-11-21T07:34:59;5.72;;;4.00;;
78298;SDS011;67556;55.656;12.590;2023-11-21T07:37:26;6.28;;;3.90;;
78298;SDS011;67556;55.656;12.590;2023-11-21T07:39:53;5.43;;;4.10;;
78298;SDS011;67556;55.656;12.590;2023-11-21T07:42:21;9.30;;;4.38;;
78298;SDS011;67556;55.656;12.590;2023-11-21T07:44:48;5.90;;;4.40;;
78298;SDS011;67556;55.656;12.590;2023-11-21T07:47:15;6.18;;;4.07;;
78298;SDS011;67556;55.656;12.590;2023-11-21T07:49:43;6.30;;;4.50;;
78298;SDS011;67556;55.656;12.590;2023-11-21T07:52:10;6.25;;;4.25;;
78298;SDS011;67556;55.656;12.590;2023-11-21T07:54:36;7.13;;;3.92;;
78298;SDS011;67556;55.656;12.590;2023-11-21T07:57:03;6.22;;;3.83;;
78298;SDS011;67556;55.656;12.590;2023-11-21T07:59:31;5.57;;;4.03;;
78298;SDS011;67556;55.656;12.590;2023-11-21T08:01:58;5.53;;;3.75;;
78298;SDS011;67556;55.656;12.590;2023-11-21T08:04:24;5.80;;;4.03;;
78298;SDS011;67556;55.656;12.590;2023-11-21T08:06:52;5.53;;;4.00;;
78298;SDS011;67556;55.656;12.590;2023-11-21T08:09:19;6.60;;;4.30;;
78298;SDS011;67556;55.656;12.590;2023-11-21T08:11:48;5.85;;;4.55;;
78298;SDS011;67556;55.656;12.590;2023-11-21T08:14:17;6.68;;;3.80;;
78298;SDS011;67556;55.656;12.590;2023-11-21T08:16:44;5.32;;;3.50;;
78298;SDS011;67556;55.656;12.590;2023-11-21T08:19:12;6.15;;;3.67;;
78298;SDS011;67556;55.656;12.590;2023-11-21T08:21:38;6.03;;;3.63;;
78298;SDS011;67556;55.656;12.590;2023-11-21T08:24:07;5.50;;;3.97;;
78298;SDS011;67556;55.656;12.590;2023-11-21T08:26:36;5.03;;;3.15;;
78298;SDS011;67556;55.656;12.590;2023-11-21T08:29:03;5.53;;;3.55;;
78298;SDS011;67556;55.656;12.590;2023-11-21T08:31:34;5.75;;;3.70;;
78298;SDS011;67556;55.656;12.590;2023-11-21T08:34:01;5.30;;;4.28;;
78298;SDS011;67556;55.656;12.590;2023-11-21T08:36:28;4.38;;;3.15;;
78298;SDS011;67556;55.656;12.590;2023-11-21T08:38:54;5.00;;;3.63;;
78298;SDS011;67556;55.656;12.590;2023-11-21T08:41:22;5.13;;;3.17;;
78298;SDS011;67556;55.656;12.590;2023-11-21T08:43:49;6.78;;;3.60;;
78298;SDS011;67556;55.656;12.590;2023-11-21T08:46:16;4.90;;;3.05;;
78298;SDS011;67556;55.656;12.590;2023-11-21T08:48:43;5.07;;;3.60;;
78298;SDS011;67556;55.656;12.590;2023-11-21T08:51:10;5.47;;;3.65;;
78298;SDS011;67556;55.656;12.590;2023-11-21T08:53:37;4.88;;;3.55;;
78298;SDS011;67556;55.656;12.590;2023-11-21T08:56:04;4.85;;;3.40;;
78298;SDS011;67556;55.656;12.590;2023-11-21T08:58:38;4.75;;;3.53;;
78298;SDS011;67556;55.656;12.590;2023-11-21T09:01:05;6.05;;;3.35;;
78298;SDS011;67556;55.656;12.590;2023-11-21T09:03:32;5.53;;;4.05;;
78298;SDS011;67556;55.656;12.590;2023-11-21T09:05:59;5.18;;;3.20;;
78298;SDS011;67556;55.656;12.590;2023-11-21T09:08:26;5.38;;;3.60;;
78298;SDS011;67556;55.656;12.590;2023-11-21T09:10:54;5.70;;;3.25;;
78298;SDS011;67556;55.656;12.590;2023-11-21T09:13:21;4.97;;;3.25;;
78298;SDS011;67556;55.656;12.590;2023-11-21T09:15:51;5.45;;;3.15;;
78298;SDS011;67556;55.656;12.590;2023-11-21T09:18:18;4.72;;;3.55;;
78298;SDS011;67556;55.656;12.590;2023-11-21T09:20:46;4.10;;;2.90;;
78298;SDS011;67556;55.656;12.590;2023-11-21T09:23:12;5.60;;;3.10;;
78298;SDS011;67556;55.656;12.590;2023-11-21T09:25:39;5.85;;;3.40;;
78298;SDS011;67556;55.656;12.590;2023-11-21T09:28:05;4.70;;;3.13;;
78298;SDS011;67556;55.656;12.590;2023-11-21T09:30:33;5.07;;;2.85;;
78298;SDS011;67556;55.656;12.590;2023-11-21T09:33:01;5.07;;;3.45;;
78298;SDS011;67556;55.656;12.590;2023-11-21T09:35:30;5.85;;;3.20;;
78298;SDS011;67556;55.656;12.590;2023-11-21T09:37:56;4.57;;;2.67;;
78298;SDS011;67556;55.656;12.590;2023-11-21T09:40:23;3.88;;;2.90;;
78298;SDS011;67556;55.656;12.590;2023-11-21T09:42:53;4.72;;;2.80;;
78298;SDS011;67556;55.656;12.590;2023-11-21T09:45:24;4.93;;;2.70;;
78298;SDS011;67556;55.656;12.590;2023-11-21T09:47:52;3.80;;;2.88;;
78298;SDS011;67556;55.656;12.590;2023-11-21T09:50:20;4.35;;;2.97;;
78298;SDS011;67556;55.656;12.590;2023-11-21T09:52:49;4.65;;;3.00;;
78298;SDS011;67556;55.656;12.590;2023-11-21T09:55:19;3.50;;;2.97;;
78298;SDS011;67556;55.656;12.590;2023-11-21T09:57:48;4.93;;;2.50;;
78298;SDS011;67556;55.656;12.590;2023-11-21T10:00:15;3.25;;;2.67;;
78298;SDS011;67556;55.656;12.590;2023-11-21T10:02:43;4.70;;;2.53;;
78298;SDS011;67556;55.656;12.590;2023-11-21T10:05:09;4.45;;;2.40;;
78298;SDS011;67556;55.656;12.590;2023-11-21T10:07:45;6.50;;;2.92;;
78298;SDS011;67556;55.656;12.590;2023-11-21T10:10:19;4.13;;;2.63;;
78298;SDS011;67556;55.656;12.590;2023-11-21T10:12:48;2.95;;;2.38;;
78298;SDS011;67556;55.656;12.590;2023-11-21T10:15:16;3.30;;;2.30;;
78298;SDS011;67556;55.656;12.590;2023-11-21T10:17:44;3.45;;;2.80;;
78298;SDS011;67556;55.656;12.590;2023-11-21T10:20:11;4.72;;;3.20;;
78298;SDS011;67556;55.656;12.590;2023-11-21T10:22:39;3.85;;;2.50;;
78298;SDS011;67556;55.656;12.590;2023-11-21T10:25:08;3.85;;;2.88;;
78298;SDS011;67556;55.656;12.590;2023-11-21T10:27:37;3.55;;;2.60;;
78298;SDS011;67556;55.656;12.590;2023-11-21T10:30:04;3.45;;;2.40;;
78298;SDS011;67556;55.656;12.590;2023-11-21T10:32:32;3.58;;;2.60;;
78298;SDS011;67556;55.656;12.590;2023-11-21T10:34:59;3.30;;;2.63;;
78298;SDS011;67556;55.656;12.590;2023-11-21T10:37:31;3.22;;;2.45;;
78298;SDS011;67556;55.656;12.590;2023-11-21T10:40:01;3.83;;;2.30;;
78298;SDS011;67556;55.656;12.590;2023-11-21T10:42:29;3.83;;;2.58;;
78298;SDS011;67556;55.656;12.590;2023-11-21T10:44:56;4.07;;;2.55;;
78298;SDS011;67556;55.656;12.590;2023-11-21T10:47:23;4.35;;;2.70;;
78298;SDS011;67556;55.656;12.590;2023-11-21T10:49:50;4.95;;;2.75;;
78298;SDS011;67556;55.656;12.590;2023-11-21T10:52:18;4.30;;;2.85;;
78298;SDS011;67556;55.656;12.590;2023-11-21T10:54:45;3.97;;;2.80;;
78298;SDS011;67556;55.656;12.590;2023-11-21T10:57:13;3.78;;;2.50;;
78298;SDS011;67556;55.656;12.590;2023-11-21T10:59:42;3.60;;;2.75;;
78298;SDS011;67556;55.656;12.590;2023-11-21T11:02:12;5.10;;;3.17;;
78298;SDS011;67556;55.656;12.590;2023-11-21T11:04:48;6.10;;;3.53;;
78298;SDS011;67556;55.656;12.590;2023-11-21T11:07:16;5.22;;;3.22;;
78298;SDS011;67556;55.656;12.590;2023-11-21T11:09:43;6.13;;;3.50;;
78298;SDS011;67556;55.656;12.590;2023-11-21T11:12:11;3.65;;;2.53;;
78298;SDS011;67556;55.656;12.590;2023-11-21T11:14:40;3.33;;;2.60;;
78298;SDS011;67556;55.656;12.590;2023-11-21T11:17:09;3.55;;;3.10;;
78298;SDS011;67556;55.656;12.590;2023-11-21T11:19:36;5.22;;;3.22;;
78298;SDS011;67556;55.656;12.590;2023-11-21T11:22:05;5.10;;;3.08;;
78298;SDS011;67556;55.656;12.590;2023-11-21T11:24:43;4.68;;;2.70;;
78298;SDS011;67556;55.656;12.590;2023-11-21T11:27:18;3.92;;;2.40;;
78298;SDS011;67556;55.656;12.590;2023-11-21T11:29:49;4.55;;;2.75;;
78298;SDS011;67556;55.656;12.590;2023-11-21T11:32:36;3.70;;;2.80;;
78298;SDS011;67556;55.656;12.590;2023-11-21T11:35:07;4.28;;;3.00;;
78298;SDS011;67556;55.656;12.590;2023-11-21T11:37:36;4.85;;;2.67;;
78298;SDS011;67556;55.656;12.590;2023-11-21T11:40:05;6.95;;;2.72;;
78298;SDS011;67556;55.656;12.590;2023-11-21T11:42:33;3.63;;;2.40;;
78298;SDS011;67556;55.656;12.590;2023-11-21T11:45:04;3.80;;;3.03;;
78298;SDS011;67556;55.656;12.590;2023-11-21T11:47:44;3.88;;;2.88;;
78298;SDS011;67556;55.656;12.590;2023-11-21T11:50:14;4.65;;;2.75;;
78298;SDS011;67556;55.656;12.590;2023-11-21T11:52:42;4.00;;;3.08;;
78298;SDS011;67556;55.656;12.590;2023-11-21T11:55:08;4.53;;;2.80;;
78298;SDS011;67556;55.656;12.590;2023-11-21T11:57:39;3.65;;;2.80;;
78298;SDS011;67556;55.656;12.590;2023-11-21T12:00:13;5.30;;;3.17;;
78298;SDS011;67556;55.656;12.590;2023-11-21T12:02:45;3.83;;;2.50;;
78298;SDS011;67556;55.656;12.590;2023-11-21T12:05:13;2.65;;;2.15;;
78298;SDS011;67556;55.656;12.590;2023-11-21T12:07:50;4.53;;;2.80;;
78298;SDS011;67556;55.656;12.590;2023-11-21T12:12:45;2.70;;;2.25;;
78298;SDS011;67556;55.656;12.590;2023-11-21T12:15:12;3.25;;;2.33;;
78298;SDS011;67556;55.656;12.590;2023-11-21T12:17:39;2.90;;;2.28;;
78298;SDS011;67556;55.656;12.590;2023-11-21T12:20:08;3.20;;;2.50;;
78298;SDS011;67556;55.656;12.590;2023-11-21T12:22:41;4.50;;;2.67;;
78298;SDS011;67556;55.656;12.590;2023-11-21T12:25:08;5.78;;;3.63;;
78298;SDS011;67556;55.656;12.590;2023-11-21T12:27:35;3.72;;;2.92;;
78298;SDS011;67556;55.656;12.590;2023-11-21T12:30:02;5.95;;;4.45;;
78298;SDS011;67556;55.656;12.590;2023-11-21T12:32:29;4.35;;;3.00;;
78298;SDS011;67556;55.656;12.590;2023-11-21T12:34:57;3.30;;;2.50;;
78298;SDS011;67556;55.656;12.590;2023-11-21T12:37:24;5.25;;;2.38;;
78298;SDS011;67556;55.656;12.590;2023-11-21T12:39:51;4.07;;;2.42;;
78298;SDS011;67556;55.656;12.590;2023-11-21T12:42:19;4.10;;;2.50;;
78298;SDS011;67556;55.656;12.590;2023-11-21T12:44:46;5.32;;;3.25;;
78298;SDS011;67556;55.656;12.590;2023-11-21T12:47:16;3.95;;;3.10;;
78298;SDS011;67556;55.656;12.590;2023-11-21T12:49:43;5.70;;;3.58;;
78298;SDS011;67556;55.656;12.590;2023-11-21T12:52:10;5.80;;;2.75;;
78298;SDS011;67556;55.656;12.590;2023-11-21T12:54:39;6.25;;;2.70;;
78298;SDS011;67556;55.656;12.590;2023-11-21T12:57:06;4.10;;;2.78;;
78298;SDS011;67556;55.656;12.590;2023-11-21T12:59:33;3.88;;;2.70;;
78298;SDS011;67556;55.656;12.590;2023-11-21T13:02:00;3.63;;;2.65;;
78298;SDS011;67556;55.656;12.590;2023-11-21T13:04:31;3.75;;;2.50;;
78298;SDS011;67556;55.656;12.590;2023-11-21T13:07:02;5.78;;;2.55;;
78298;SDS011;67556;55.656;12.590;2023-11-21T13:09:41;4.50;;;2.65;;
78298;SDS011;67556;55.656;12.590;2023-11-21T13:12:09;3.45;;;2.78;;
78298;SDS011;67556;55.656;12.590;2023-11-21T13:14:37;3.60;;;2.47;;
78298;SDS011;67556;55.656;12.590;2023-11-21T13:17:06;3.38;;;2.58;;
78298;SDS011;67556;55.656;12.590;2023-11-21T13:19:36;3.42;;;2.40;;
78298;SDS011;67556;55.656;12.590;2023-11-21T13:22:03;4.53;;;2.58;;
78298;SDS011;67556;55.656;12.590;2023-11-21T13:24:29;5.00;;;2.67;;
78298;SDS011;67556;55.656;12.590;2023-11-21T13:27:03;3.88;;;2.75;;
78298;SDS011;67556;55.656;12.590;2023-11-21T13:29:30;4.95;;;2.92;;
78298;SDS011;67556;55.656;12.590;2023-11-21T13:31:56;3.45;;;2.50;;
78298;SDS011;67556;55.656;12.590;2023-11-21T13:34:24;4.20;;;2.95;;
78298;SDS011;67556;55.656;12.590;2023-11-21T13:36:52;3.72;;;2.53;;
78298;SDS011;67556;55.656;12.590;2023-11-21T13:39:23;3.53;;;2.85;;
78298;SDS011;67556;55.656;12.590;2023-11-21T13:41:54;4.30;;;3.20;;
78298;SDS011;67556;55.656;12.590;2023-11-21T13:44:23;4.53;;;3.70;;
78298;SDS011;67556;55.656;12.590;2023-11-21T13:46:59;4.25;;;3.22;;
78298;SDS011;67556;55.656;12.590;2023-11-21T13:49:25;3.45;;;2.85;;
78298;SDS011;67556;55.656;12.590;2023-11-21T13:51:52;3.80;;;2.85;;
78298;SDS011;67556;55.656;12.590;2023-11-21T13:54:20;3.13;;;2.22;;
78298;SDS011;67556;55.656;12.590;2023-11-21T13:56:56;5.63;;;2.75;;
78298;SDS011;67556;55.656;12.590;2023-11-21T13:59:25;4.93;;;2.97;;
78298;SDS011;67556;55.656;12.590;2023-11-21T14:01:55;3.88;;;2.33;;
78298;SDS011;67556;55.656;12.590;2023-11-21T14:04:24;3.53;;;2.60;;
78298;SDS011;67556;55.656;12.590;2023-11-21T14:07:20;3.88;;;2.60;;
78298;SDS011;67556;55.656;12.590;2023-11-21T14:12:24;3.88;;;2.85;;
78298;SDS011;67556;55.656;12.590;2023-11-21T14:14:51;4.45;;;2.78;;
78298;SDS011;67556;55.656;12.590;2023-11-21T14:17:19;5.70;;;2.95;;
78298;SDS011;67556;55.656;12.590;2023-11-21T14:19:47;3.78;;;2.60;;
78298;SDS011;67556;55.656;12.590;2023-11-21T14:22:14;3.85;;;3.00;;
78298;SDS011;67556;55.656;12.590;2023-11-21T14:24:42;4.35;;;3.00;;
78298;SDS011;67556;55.656;12.590;2023-11-21T14:27:11;3.55;;;2.75;;
78298;SDS011;67556;55.656;12.590;2023-11-21T14:29:39;4.43;;;2.70;;
78298;SDS011;67556;55.656;12.590;2023-11-21T14:32:10;5.35;;;2.67;;
78298;SDS011;67556;55.656;12.590;2023-11-21T14:34:38;3.60;;;2.58;;
78298;SDS011;67556;55.656;12.590;2023-11-21T14:37:05;3.95;;;2.60;;
78298;SDS011;67556;55.656;12.590;2023-11-21T14:39:32;4.35;;;3.15;;
78298;SDS011;67556;55.656;12.590;2023-11-21T14:42:03;3.58;;;2.80;;
78298;SDS011;67556;55.656;12.590;2023-11-21T14:44:31;4.30;;;2.78;;
78298;SDS011;67556;55.656;12.590;2023-11-21T14:47:03;5.22;;;2.90;;
78298;SDS011;67556;55.656;12.590;2023-11-21T14:49:36;3.45;;;2.80;;